Time;durP1;ratioP1;P1;durP2;ratioP2;P2;SDS_P1;SDS_P2;PMS_P1;PMS_P2;Temp;Humidity;BMP_temperature;BMP_pressure;BME280_temperature;BME280_humidity;BME280_pressure;Samples;Min_cycle;Max_cycle;Signal;HPM_P1;HPM_P2
2023/07/21 00:02:16;;;;;;;3.78;1.80;;;27.30;40.50;;;;;;6010286;26;20051;-79
2023/07/21 00:05:22;;;;;;;4.95;1.63;;;27.30;40.50;;;;;;6129678;29;20083;-78
2023/07/21 00:08:37;;;;;;;6.10;2.42;;;27.30;40.40;;;;;;6147412;29;20026;-79
2023/07/21 00:12:10;;;;;;;5.43;1.70;;;27.40;40.60;;;;;;6145611;29;20114;-79
2023/07/21 00:16:17;;;;;;;4.18;1.65;;;27.40;40.70;;;;;;6129195;29;20046;-79
2023/07/21 00:19:25;;;;;;;6.53;1.75;;;27.10;40.60;;;;;;6127385;28;20049;-79
2023/07/21 00:22:47;;;;;;;5.53;1.30;;;27.10;40.60;;;;;;6112781;29;20039;-78
2023/07/21 00:25:54;;;;;;;2.40;1.20;;;27.00;40.70;;;;;;6112789;29;20428;-80
2023/07/21 00:29:03;;;;;;;4.53;1.33;;;27.00;40.90;;;;;;6128014;29;20546;-78
2023/07/21 00:32:17;;;;;;;2.10;1.33;;;26.90;41.10;;;;;;6128346;29;20484;-79
2023/07/21 00:35:35;;;;;;;3.10;1.35;;;26.80;41.40;;;;;;6128564;29;20027;-79
2023/07/21 00:38:42;;;;;;;2.13;1.17;;;26.80;41.60;;;;;;6112227;29;20042;-79
2023/07/21 00:42:15;;;;;;;4.50;1.40;;;26.70;41.70;;;;;;6127031;29;20046;-78
2023/07/21 00:45:28;;;;;;;2.40;1.15;;;26.70;41.90;;;;;;6126869;28;20039;-77
2023/07/21 00:48:40;;;;;;;1.95;1.42;;;26.70;41.90;;;;;;6128363;29;20051;-78
2023/07/21 00:52:58;;;;;;;2.92;1.38;;;26.60;42.00;;;;;;6145668;28;20412;-78
2023/07/21 00:56:28;;;;;;;4.28;1.45;;;26.60;42.50;;;;;;6078016;29;20028;-77
2023/07/21 00:59:41;;;;;;;1.65;1.20;;;26.50;42.70;;;;;;6077605;29;20230;-80
2023/07/21 01:02:49;;;;;;;2.55;1.40;;;26.50;42.70;;;;;;6077952;29;20241;-78
2023/07/21 01:06:00;;;;;;;6.63;1.65;;;26.40;42.90;;;;;;6077574;29;20333;-80
2023/07/21 01:13:34;;;;;;;3.22;1.50;;;26.00;42.90;;;;;;5979516;29;20466;-78
2023/07/21 01:16:48;;;;;;;3.08;1.58;;;26.30;43.20;;;;;;5979317;29;20031;-78
2023/07/21 01:19:58;;;;;;;2.28;1.50;;;26.20;43.30;;;;;;5978824;29;20659;-79
2023/07/21 01:23:20;;;;;;;2.00;1.52;;;27.10;43.90;;;;;;5985669;29;20205;-78
2023/07/21 01:26:30;;;;;;;3.67;1.58;;;26.20;43.70;;;;;;5965925;29;20030;-78
2023/07/21 01:30:02;;;;;;;2.72;1.35;;;26.80;43.90;;;;;;5990028;29;20038;-80
2023/07/21 01:33:10;;;;;;;4.88;1.80;;;26.70;43.80;;;;;;5988075;29;20082;-79
2023/07/21 01:36:16;;;;;;;4.63;1.50;;;26.20;43.60;;;;;;5988778;29;20129;-77
2023/07/21 01:39:22;;;;;;;4.65;1.20;;;26.20;43.70;;;;;;5989359;29;20097;-79
2023/07/21 01:42:29;;;;;;;3.65;1.80;;;26.20;43.70;;;;;;6005050;29;20089;-80
2023/07/21 01:46:18;;;;;;;3.17;1.40;;;26.20;43.80;;;;;;6035747;29;20080;-80
2023/07/21 01:49:20;;;;;;;6.70;1.50;;;25.80;43.60;;;;;;6004484;29;20068;-79
2023/07/21 01:52:35;;;;;;;1.70;1.30;;;26.20;43.70;;;;;;6029152;29;20038;-77
2023/07/21 01:56:40;;;;;;;2.08;1.48;;;26.30;43.90;;;;;;6013357;29;20034;-80
2023/07/21 01:59:49;;;;;;;2.75;1.60;;;25.50;43.30;;;;;;5958965;29;20089;-80
2023/07/21 02:02:52;;;;;;;5.28;1.23;;;27.20;44.20;;;;;;5945129;29;20185;-78
2023/07/21 02:05:56;;;;;;;2.60;1.33;;;25.40;43.00;;;;;;5908895;30;20043;-79
2023/07/21 02:08:58;;;;;;;9.77;1.33;;;26.40;43.50;;;;;;5907548;30;20039;-78
2023/07/21 02:12:02;;;;;;;4.20;1.67;;;26.50;43.60;;;;;;5922364;30;20102;-77
2023/07/21 02:15:18;;;;;;;1.33;1.13;;;26.70;43.70;;;;;;5909148;30;20873;-79
2023/07/21 02:18:20;;;;;;;3.03;1.40;;;26.50;43.50;;;;;;5942484;29;20061;-78
2023/07/21 02:21:24;;;;;;;6.22;2.00;;;25.60;43.00;;;;;;5988554;29;20246;-77
2023/07/21 02:24:49;;;;;;;;;;;;;;;;;;;;;
2023/07/21 02:27:50;;;;;;;3.92;1.80;;;26.50;43.80;;;;;;6057161;29;20048;-76
2023/07/21 02:31:09;;;;;;;8.68;1.80;;;26.30;43.70;;;;;;6056606;29;20175;-76
2023/07/21 02:34:12;;;;;;;1.75;1.50;;;26.30;43.90;;;;;;6080302;29;20035;-79
2023/07/21 02:37:13;;;;;;;3.08;1.50;;;26.20;44.00;;;;;;6129287;28;20019;-81
2023/07/21 02:40:23;;;;;;;3.42;1.63;;;26.20;44.10;;;;;;6113453;29;20083;-77
2023/07/21 02:43:24;;;;;;;4.40;1.48;;;26.10;44.20;;;;;;6114586;29;20031;-79
2023/07/21 02:46:25;;;;;;;2.65;1.50;;;26.10;44.40;;;;;;6113631;29;20058;-79
2023/07/21 02:49:27;;;;;;;3.05;1.40;;;26.10;44.30;;;;;;6127191;29;20201;-78
2023/07/21 02:52:28;;;;;;;2.55;1.40;;;26.10;44.40;;;;;;6114906;29;20035;-80
2023/07/21 02:55:31;;;;;;;2.08;1.52;;;26.10;44.50;;;;;;6129536;29;20030;-79
2023/07/21 02:59:00;;;;;;;1.75;1.23;;;26.00;44.50;;;;;;6129752;29;20015;-78
2023/07/21 03:02:18;;;;;;;3.85;2.08;;;26.20;44.70;;;;;;6125022;29;20134;-79
2023/07/21 03:05:23;;;;;;;5.80;1.30;;;26.00;44.60;;;;;;6090859;29;20447;-77
2023/07/21 03:08:30;;;;;;;4.15;1.50;;;26.00;44.60;;;;;;6106985;29;20127;-78
2023/07/21 03:11:35;;;;;;;3.00;1.92;;;25.90;44.70;;;;;;6107230;29;20094;-77
2023/07/21 03:14:51;;;;;;;7.70;1.80;;;25.80;44.70;;;;;;6106512;29;20024;-78
2023/07/21 03:17:55;;;;;;;7.80;1.48;;;25.80;44.90;;;;;;6091937;29;20040;-78
2023/07/21 03:20:59;;;;;;;2.05;1.20;;;25.80;45.10;;;;;;6091257;29;20035;-78
2023/07/21 03:24:00;;;;;;;2.00;1.27;;;25.60;45.10;;;;;;6119896;29;20035;-78
2023/07/21 03:27:03;;;;;;;2.00;1.27;;;25.80;45.20;;;;;;6108914;29;20417;-77
2023/07/21 03:30:12;;;;;;;3.20;1.15;;;25.70;45.30;;;;;;6106317;29;20023;-80
2023/07/21 03:33:21;;;;;;;6.50;1.77;;;25.70;45.50;;;;;;6108072;29;20092;-77
2023/07/21 03:36:30;;;;;;;4.35;1.75;;;25.60;45.50;;;;;;6108715;29;20495;-79
2023/07/21 03:39:33;;;;;;;2.28;1.60;;;25.70;45.60;;;;;;6107544;29;20039;-78
2023/07/21 03:42:34;;;;;;;3.60;1.45;;;25.50;45.60;;;;;;6106886;29;20035;-79
2023/07/21 03:45:35;;;;;;;3.78;1.95;;;25.50;45.70;;;;;;6130712;29;20078;-77
2023/07/21 03:48:37;;;;;;;3.15;1.40;;;25.40;45.70;;;;;;6133909;28;20023;-79
2023/07/21 03:51:43;;;;;;;4.20;1.63;;;25.30;45.70;;;;;;6115978;29;20051;-78
2023/07/21 03:54:48;;;;;;;2.22;1.25;;;25.20;45.80;;;;;;6149917;29;20703;-77
2023/07/21 03:57:49;;;;;;;4.10;1.50;;;25.10;46.10;;;;;;6119341;29;20079;-79
2023/07/21 04:00:50;;;;;;;8.25;1.40;;;25.00;46.10;;;;;;6147138;29;20035;-78
2023/07/21 04:03:51;;;;;;;11.75;1.80;;;24.10;45.80;;;;;;6128519;29;20023;-79
2023/07/21 04:06:52;;;;;;;5.90;1.25;;;25.00;46.10;;;;;;6148622;28;20023;-79
2023/07/21 04:09:54;;;;;;;1.85;1.30;;;25.10;46.10;;;;;;6138904;29;20360;-78
2023/07/21 04:12:58;;;;;;;4.75;1.38;;;25.10;45.90;;;;;;6130605;29;20493;-77
2023/07/21 04:15:59;;;;;;;4.38;1.42;;;25.10;45.90;;;;;;6131109;29;20027;-78
2023/07/21 04:19:00;;;;;;;5.45;1.70;;;25.10;45.80;;;;;;6130753;28;20039;-79
2023/07/21 04:22:04;;;;;;;12.10;1.65;;;25.10;46.10;;;;;;6115026;29;20031;-78
2023/07/21 04:25:06;;;;;;;4.90;1.23;;;25.00;46.10;;;;;;6114514;29;20067;-79
2023/07/21 04:28:07;;;;;;;2.72;1.25;;;24.90;46.80;;;;;;6130525;29;20143;-79
2023/07/21 04:31:15;;;;;;;2.10;1.30;;;24.90;46.40;;;;;;6129504;29;20035;-79
2023/07/21 04:34:31;;;;;;;5.80;1.63;;;24.20;46.10;;;;;;6147597;28;20028;-77
2023/07/21 04:37:33;;;;;;;3.55;1.20;;;24.80;46.40;;;;;;6135635;28;20450;-78
2023/07/21 04:40:34;;;;;;;6.47;1.35;;;24.80;46.40;;;;;;6136449;28;20027;-79
2023/07/21 04:43:35;;;;;;;1.92;1.02;;;24.90;46.30;;;;;;6154305;28;20046;-78
2023/07/21 04:46:42;;;;;;;2.83;1.02;;;24.90;46.10;;;;;;6135840;28;20475;-77
2023/07/21 04:49:55;;;;;;;4.45;1.20;;;24.70;45.70;;;;;;6134976;28;20027;-78
2023/07/21 04:53:07;;;;;;;1.60;1.23;;;24.70;45.70;;;;;;6115204;29;20498;-78
2023/07/21 04:56:09;;;;;;;6.45;1.60;;;24.70;45.60;;;;;;6132104;29;20023;-78
2023/07/21 04:59:18;;;;;;;1.83;1.23;;;24.70;45.80;;;;;;6115248;29;20126;-78
2023/07/21 05:02:23;;;;;;;2.28;1.23;;;24.70;45.90;;;;;;6128918;29;20546;-78
2023/07/21 05:05:33;;;;;;;6.60;1.35;;;24.80;45.80;;;;;;6128275;29;20035;-77
2023/07/21 05:08:39;;;;;;;2.47;1.40;;;24.70;45.80;;;;;;6127449;29;20483;-78
2023/07/21 05:11:54;;;;;;;5.88;1.30;;;24.70;45.60;;;;;;6127064;29;20055;-77
2023/07/21 05:15:21;;;;;;;3.03;1.17;;;24.80;45.50;;;;;;6133428;29;20019;-78
2023/07/21 05:18:42;;;;;;;10.18;1.35;;;24.70;45.60;;;;;;6134620;29;20098;-77
2023/07/21 05:22:21;;;;;;;5.25;1.58;;;24.60;46.30;;;;;;6095593;29;20114;-77
2023/07/21 05:25:42;;;;;;;5.28;1.13;;;24.60;46.50;;;;;;6085371;29;20065;-78
2023/07/21 05:28:46;;;;;;;9.43;1.38;;;24.70;46.50;;;;;;6094498;29;20152;-80
2023/07/21 05:32:30;;;;;;;4.38;1.00;;;24.60;46.60;;;;;;6076945;29;20044;-79
2023/07/21 05:36:05;;;;;;;6.68;1.42;;;24.70;47.10;;;;;;6080972;29;20500;-80
2023/07/21 05:39:35;;;;;;;2.63;1.20;;;24.70;46.80;;;;;;6080334;29;20488;-77
2023/07/21 05:42:40;;;;;;;4.43;1.40;;;25.00;46.80;;;;;;6072311;29;20036;-78
2023/07/21 05:49:34;;;;;;;;;;;24.90;47.00;;;;;;5997485;29;20181;-78
2023/07/21 05:52:40;;;;;;;5.72;1.35;;;23.60;46.60;;;;;;6000152;29;19936;-79
2023/07/21 05:56:11;;;;;;;6.15;1.60;;;25.00;47.50;;;;;;5985297;29;20190;-79
2023/07/21 05:59:37;;;;;;;2.40;1.60;;;25.00;47.80;;;;;;5983902;29;20038;-78
2023/07/21 06:02:57;;;;;;;4.18;2.17;;;25.10;47.60;;;;;;6018302;29;20498;-79
2023/07/21 06:06:25;;;;;;;8.05;2.20;;;25.10;47.70;;;;;;6008063;29;20040;-80
2023/07/21 06:10:25;;;;;;;4.20;1.58;;;25.30;47.90;;;;;;6006444;29;20057;-79
2023/07/21 06:14:07;;;;;;;4.22;1.95;;;25.50;48.20;;;;;;6012474;29;20360;-79
2023/07/21 06:17:42;;;;;;;3.28;1.58;;;25.30;47.90;;;;;;6013696;29;20140;-80
2023/07/21 06:20:52;;;;;;;7.43;1.77;;;25.50;47.70;;;;;;6011998;29;20105;-78
2023/07/21 06:24:02;;;;;;;4.32;1.73;;;25.50;47.60;;;;;;6026470;29;20038;-78
2023/07/21 06:27:46;;;;;;;3.13;1.77;;;25.60;47.30;;;;;;6071186;29;20433;-77
2023/07/21 06:34:14;;;;;;;2.08;1.33;;;25.70;47.20;;;;;;5805822;26;20050;-77
2023/07/21 06:37:38;;;;;;;5.70;1.98;;;25.50;46.90;;;;;;6147381;29;20031;-79
2023/07/21 06:41:14;;;;;;;;;;;;;;;;;;;;;
2023/07/21 06:44:52;;;;;;;9.68;1.85;;;25.70;47.00;;;;;;6153967;28;20448;-77
2023/07/21 06:48:28;;;;;;;3.85;1.70;;;25.60;47.10;;;;;;6011730;29;20058;-78
2023/07/21 06:51:45;;;;;;;12.02;2.08;;;25.70;47.10;;;;;;6002453;29;20497;-79
2023/07/21 06:54:52;;;;;;;2.30;1.52;;;25.70;47.20;;;;;;6003160;29;20086;-78
2023/07/21 06:58:35;;;;;;;9.00;1.90;;;25.70;47.00;;;;;;6015327;29;20164;-80
2023/07/21 07:01:51;;;;;;;7.03;1.80;;;25.80;47.20;;;;;;6010590;29;20498;-78
2023/07/21 07:05:09;;;;;;;3.20;1.85;;;26.00;46.90;;;;;;5999925;29;20355;-80
2023/07/21 07:08:20;;;;;;;5.03;2.20;;;26.10;46.50;;;;;;6020965;29;20363;-80
2023/07/21 07:15:55;;;;;;;7.43;2.30;;;26.40;45.70;;;;;;5908030;30;20146;-78
2023/07/21 07:22:28;;;;;;;5.70;1.90;;;27.10;45.70;;;;;;6143688;28;20387;-79
2023/07/21 07:25:41;;;;;;;7.47;1.70;;;27.10;44.80;;;;;;6111988;29;20181;-77
2023/07/21 07:28:45;;;;;;;5.65;1.80;;;27.20;44.50;;;;;;6127690;29;20043;-77
2023/07/21 07:31:51;;;;;;;5.28;1.63;;;27.30;44.30;;;;;;6136191;28;20122;-79
2023/07/21 07:35:01;;;;;;;10.73;2.15;;;27.30;44.20;;;;;;6152063;28;20493;-77
2023/07/21 07:38:14;;;;;;;4.47;2.25;;;27.40;44.20;;;;;;6135962;28;20430;-78
2023/07/21 07:41:17;;;;;;;;;;;27.40;44.30;;;;;;6150929;28;20054;-79
2023/07/21 07:44:21;;;;;;;9.27;2.38;;;27.50;44.20;;;;;;6151375;28;20437;-78
2023/07/21 07:47:25;;;;;;;7.82;1.95;;;27.50;44.10;;;;;;6150512;28;20029;-80
2023/07/21 07:50:41;;;;;;;4.90;1.60;;;27.60;44.40;;;;;;6168161;28;20418;-78
2023/07/21 07:53:57;;;;;;;11.55;2.38;;;27.70;43.90;;;;;;6150277;28;20045;-77
2023/07/21 07:57:00;;;;;;;4.55;1.90;;;27.80;43.90;;;;;;6154236;28;20023;-76
2023/07/21 08:00:10;;;;;;;10.15;2.60;;;28.00;43.90;;;;;;6161355;28;20022;-80
2023/07/21 08:03:14;;;;;;;7.35;2.15;;;28.10;43.70;;;;;;6159190;28;20864;-79
2023/07/21 08:06:23;;;;;;;6.18;2.00;;;28.20;43.60;;;;;;6159708;28;20026;-78
2023/07/21 08:09:29;;;;;;;3.55;1.85;;;28.30;43.40;;;;;;6193959;28;20022;-80
2023/07/21 08:12:41;;;;;;;4.45;2.20;;;28.30;43.30;;;;;;6176091;28;20026;-78
2023/07/21 08:15:50;;;;;;;5.45;2.30;;;27.80;42.80;;;;;;6153816;28;20031;-80
2023/07/21 08:18:56;;;;;;;3.60;1.70;;;28.60;42.90;;;;;;6152310;28;20034;-80
2023/07/21 08:22:11;;;;;;;6.18;2.03;;;28.80;42.60;;;;;;6152011;28;20034;-80
2023/07/21 08:25:16;;;;;;;3.77;1.90;;;28.90;42.30;;;;;;6151484;28;20034;-78
2023/07/21 08:28:17;;;;;;;2.55;1.52;;;29.00;41.80;;;;;;6152543;28;20026;-80
2023/07/21 08:31:21;;;;;;;5.65;1.63;;;29.90;41.80;;;;;;6150719;28;20121;-79
2023/07/21 08:34:25;;;;;;;3.92;2.00;;;29.30;40.50;;;;;;6152721;28;20026;-77
2023/07/21 08:37:36;;;;;;;9.85;2.10;;;29.50;40.10;;;;;;6151893;28;20711;-79
2023/07/21 08:40:49;;;;;;;4.53;2.50;;;29.70;40.10;;;;;;6151513;28;20716;-78
2023/07/21 08:43:58;;;;;;;6.43;1.77;;;29.70;39.90;;;;;;6133549;28;20056;-80
2023/07/21 08:47:15;;;;;;;6.85;1.80;;;29.70;39.80;;;;;;6149338;28;20030;-81
2023/07/21 08:50:31;;;;;;;;;;;;;;;;;;;;;
2023/07/21 08:54:13;;;;;;;7.10;1.92;;;29.90;40.00;;;;;;6150046;28;20022;-80
2023/07/21 08:57:30;;;;;;;6.10;1.80;;;29.90;39.90;;;;;;6099948;29;20135;-80
2023/07/21 09:00:44;;;;;;;5.30;2.03;;;29.90;39.60;;;;;;6099208;29;20488;-78
2023/07/21 09:03:59;;;;;;;10.35;2.65;;;29.90;39.40;;;;;;6085209;29;20059;-79
2023/07/21 09:07:25;;;;;;;8.25;1.88;;;29.80;39.30;;;;;;6114791;29;20291;-78
2023/07/21 09:14:49;;;;;;;6.75;1.50;;;29.90;38.80;;;;;;6110868;29;20023;-78
2023/07/21 09:18:07;;;;;;;3.80;1.50;;;29.90;38.20;;;;;;6095089;29;20111;-76
2023/07/21 09:25:57;;;;;;;7.25;1.60;;;30.50;37.40;;;;;;6059849;29;20125;-79
2023/07/21 09:29:41;;;;;;;;;;;;;;;;;;;;;
2023/07/21 09:38:30;;;;;;;;;;;;;;;;;;;;;
2023/07/21 10:00:24;;;;;;;5.57;1.48;;;30.80;34.90;;;;;;5860142;30;20117;-78
2023/07/21 10:04:34;;;;;;;0.93;0.90;;;31.00;33.50;;;;;;5830426;30;20120;-80
2023/07/21 10:13:05;;;;;;;;;;;;;;;;;;;;;
2023/07/21 10:16:56;;;;;;;1.50;1.02;;;31.20;30.60;;;;;;5815844;30;20030;-80
2023/07/21 11:26:33;;;;;;;;;;;;;;;;;;;;;
2023/07/21 12:02:53;;;;;;;3.03;1.60;;;36.90;25.40;;;;;;6625867;23;20071;-78
2023/07/21 12:39:10;;;;;;;2.38;1.50;;;39.60;22.70;;;;;;6106039;29;20044;-80
2023/07/21 12:42:17;;;;;;;2.28;1.27;;;39.60;22.40;;;;;;6091375;29;20043;-80
2023/07/21 12:45:20;;;;;;;5.72;1.38;;;39.50;22.30;;;;;;6107597;29;20452;-79
2023/07/21 12:48:24;;;;;;;8.07;1.75;;;39.60;22.20;;;;;;6106713;29;20039;-81
2023/07/21 12:57:01;;;;;;;3.42;1.40;;;40.00;21.90;;;;;;6074570;29;20041;-80
2023/07/21 13:01:10;;;;;;;;;;;;;;;;;;;;;
2023/07/21 13:09:41;;;;;;;2.33;1.60;;;40.40;21.30;;;;;;5913126;30;20052;-81
2023/07/21 13:13:34;;;;;;;2.05;1.50;;;40.40;21.20;;;;;;5896438;30;20608;-82
2023/07/21 13:41:27;;;;;;;8.60;1.52;;;43.10;19.50;;;;;;6199604;23;20592;-79
2023/07/21 13:51:58;;;;;;;10.38;1.67;;;44.00;18.90;;;;;;3825053;23;20051;-80
2023/07/21 14:03:31;;;;;;;4.35;1.90;;;45.20;17.70;;;;;;6038903;29;20037;-80
2023/07/21 14:06:51;;;;;;;6.43;1.63;;;45.60;17.30;;;;;;6039509;29;20080;-81
2023/07/21 15:23:37;;;;;;;9.25;1.77;;;38.80;22.50;;;;;;6122223;29;20351;-81
2023/07/21 15:27:01;;;;;;;1.95;1.50;;;37.90;23.20;;;;;;6003281;29;20050;-79
2023/07/21 16:00:05;;;;;;;;;;;;;;;;;;;;;
2023/07/21 17:35:31;;;;;;;2.17;1.60;;;32.40;28.70;;;;;;6127733;29;20103;-81
2023/07/21 17:39:02;;;;;;;2.72;1.90;;;32.30;29.00;;;;;;6055216;29;20065;-78
2023/07/21 17:46:55;;;;;;;;;;;;;;;;;;;;;
2023/07/21 17:50:48;;;;;;;3.15;1.35;;;32.00;29.50;;;;;;6053688;29;20112;-79
2023/07/21 17:54:16;;;;;;;5.18;2.28;;;31.90;29.80;;;;;;6032799;29;20088;-81
2023/07/21 18:19:35;;;;;;;1.98;1.20;;;31.20;31.70;;;;;;6335506;23;21313;-78
2023/07/21 18:23:27;;;;;;;2.85;1.45;;;31.00;31.90;;;;;;6009975;29;20126;-81
2023/07/21 18:43:41;;;;;;;;;;;;;;;;;;;;;
2023/07/21 19:03:28;;;;;;;;;;;;;;;;;;;;;
2023/07/21 19:30:01;;;;;;;4.15;1.73;;;29.30;36.70;;;;;;6217266;23;20047;-80
2023/07/21 19:33:33;;;;;;;2.50;1.60;;;29.00;36.80;;;;;;6106062;29;20039;-81
2023/07/21 19:37:20;;;;;;;1.95;1.38;;;29.10;37.20;;;;;;6107291;29;20046;-81
2023/07/21 19:40:37;;;;;;;2.58;1.50;;;29.10;37.40;;;;;;6105683;29;20665;-80
2023/07/21 19:47:36;;;;;;;14.90;1.70;;;28.90;37.60;;;;;;6039173;29;20101;-79
2023/07/21 20:04:50;;;;;;;3.97;1.45;;;28.90;37.80;;;;;;7321057;23;20047;-75
2023/07/21 20:30:36;;;;;;;4.25;1.90;;;28.60;37.50;;;;;;6323915;23;20059;-81
2023/07/21 20:38:16;;;;;;;2.58;1.70;;;28.30;37.60;;;;;;6542913;23;20055;-77
2023/07/21 20:41:17;;;;;;;4.20;1.67;;;28.50;37.60;;;;;;6143888;29;20031;-76
2023/07/21 20:44:18;;;;;;;3.42;1.65;;;28.60;37.90;;;;;;6143916;29;20050;-75
2023/07/21 20:47:19;;;;;;;4.38;1.40;;;28.60;37.70;;;;;;6143542;28;20054;-75
2023/07/21 20:50:19;;;;;;;2.92;1.70;;;28.60;37.60;;;;;;6143189;28;20127;-74
2023/07/21 20:53:21;;;;;;;4.72;1.60;;;28.60;37.60;;;;;;6126136;29;20043;-74
2023/07/21 20:56:22;;;;;;;2.20;1.30;;;28.70;37.50;;;;;;6143720;28;20027;-75
2023/07/21 20:59:22;;;;;;;5.13;1.73;;;28.70;37.40;;;;;;6126943;29;20160;-76
2023/07/21 21:02:23;;;;;;;3.58;1.75;;;28.70;37.30;;;;;;6126545;29;20126;-75
2023/07/21 21:05:24;;;;;;;2.08;1.40;;;28.70;37.20;;;;;;6126646;29;20031;-77
2023/07/21 21:08:25;;;;;;;4.65;1.33;;;28.70;37.40;;;;;;6145221;28;20050;-75
2023/07/21 21:11:26;;;;;;;2.67;1.60;;;28.70;37.50;;;;;;6118721;29;20066;-75
2023/07/21 21:14:27;;;;;;;3.67;1.60;;;28.70;37.50;;;;;;6135608;29;20131;-76
2023/07/21 21:17:28;;;;;;;2.92;1.63;;;28.70;37.50;;;;;;6149127;28;20027;-78
2023/07/21 21:20:29;;;;;;;4.68;1.63;;;28.70;37.70;;;;;;6145531;28;20035;-76
2023/07/21 21:23:30;;;;;;;5.15;1.65;;;28.60;37.80;;;;;;6144415;28;20454;-75
2023/07/21 21:26:31;;;;;;;1.73;1.52;;;28.60;37.90;;;;;;6144833;28;20051;-76
2023/07/21 21:29:31;;;;;;;2.78;1.75;;;28.60;37.90;;;;;;6145432;29;20031;-78
2023/07/21 21:32:32;;;;;;;3.08;1.60;;;28.60;38.00;;;;;;6111478;29;20039;-79
2023/07/21 21:35:33;;;;;;;3.25;1.70;;;28.60;38.70;;;;;;6125531;28;20036;-74
2023/07/21 21:38:34;;;;;;;3.92;2.00;;;28.50;38.20;;;;;;6146581;29;20046;-80
2023/07/21 21:41:35;;;;;;;4.45;1.40;;;28.50;38.30;;;;;;6148616;28;20122;-79
2023/07/21 21:44:36;;;;;;;4.60;1.55;;;28.40;38.50;;;;;;6152813;28;20054;-79
2023/07/21 21:47:37;;;;;;;3.50;1.38;;;28.20;38.60;;;;;;6134884;29;20042;-80
2023/07/21 21:50:42;;;;;;;2.40;1.52;;;28.10;38.90;;;;;;6152535;29;20046;-76
2023/07/21 21:53:49;;;;;;;2.08;1.50;;;27.90;39.20;;;;;;6139255;29;20095;-79
2023/07/21 21:56:50;;;;;;;3.35;1.65;;;27.80;39.40;;;;;;6158868;28;20042;-79
2023/07/21 21:59:51;;;;;;;2.10;1.40;;;27.70;40.10;;;;;;6138785;29;20027;-81
2023/07/21 22:02:53;;;;;;;2.30;1.45;;;27.60;39.70;;;;;;6153337;28;20349;-78
2023/07/21 22:05:54;;;;;;;2.00;1.38;;;27.50;39.70;;;;;;6137700;28;20035;-79
2023/07/21 22:08:57;;;;;;;2.75;1.67;;;27.40;39.80;;;;;;6128625;28;20027;-79
2023/07/21 22:12:02;;;;;;;1.65;1.15;;;27.40;39.80;;;;;;6131449;29;20099;-79
2023/07/21 22:15:04;;;;;;;3.50;1.40;;;27.10;39.70;;;;;;6131698;29;20028;-79
2023/07/21 22:18:05;;;;;;;3.25;1.60;;;27.30;39.80;;;;;;6130066;29;20027;-77
2023/07/21 22:21:06;;;;;;;1.83;1.30;;;27.30;39.90;;;;;;6138541;28;20024;-78
2023/07/21 22:24:07;;;;;;;1.38;1.20;;;27.70;40.10;;;;;;6136993;29;20027;-78
2023/07/21 22:27:08;;;;;;;4.75;1.50;;;27.30;39.80;;;;;;6138841;29;20035;-80
2023/07/21 22:30:09;;;;;;;2.28;1.38;;;27.20;39.90;;;;;;6121720;29;20039;-80
2023/07/21 22:33:10;;;;;;;2.38;1.73;;;27.30;40.00;;;;;;6138296;29;20035;-78
2023/07/21 22:36:16;;;;;;;7.18;1.60;;;27.20;40.00;;;;;;6116965;29;20620;-78
2023/07/21 22:39:17;;;;;;;1.73;1.35;;;27.20;40.10;;;;;;6156885;28;20045;-78
2023/07/21 22:42:18;;;;;;;4.97;1.27;;;27.20;40.10;;;;;;6152275;29;20039;-78
2023/07/21 22:45:18;;;;;;;2.00;1.13;;;27.20;40.20;;;;;;6137590;28;20062;-78
2023/07/21 22:48:22;;;;;;;4.13;1.65;;;27.20;40.30;;;;;;6156400;29;20042;-78
2023/07/21 22:51:23;;;;;;;1.92;1.13;;;27.20;40.40;;;;;;6122933;29;20032;-78
2023/07/21 22:54:24;;;;;;;1.95;1.40;;;27.20;40.40;;;;;;6139402;28;20180;-77
2023/07/21 22:57:25;;;;;;;4.30;1.70;;;27.10;40.50;;;;;;6138406;29;20384;-79
2023/07/21 23:00:29;;;;;;;3.08;1.67;;;27.10;40.60;;;;;;6125531;29;20440;-79
2023/07/21 23:03:35;;;;;;;1.90;1.45;;;27.60;40.90;;;;;;6132495;29;20091;-78
2023/07/21 23:06:39;;;;;;;7.95;1.63;;;27.10;40.80;;;;;;6135461;29;20040;-79
2023/07/21 23:09:40;;;;;;;2.88;1.40;;;26.90;40.60;;;;;;6135294;29;20087;-80
2023/07/21 23:12:41;;;;;;;1.90;1.30;;;27.00;40.70;;;;;;6133857;29;20040;-79
2023/07/21 23:15:42;;;;;;;5.57;1.45;;;27.00;40.70;;;;;;6114493;29;20634;-78
2023/07/21 23:18:43;;;;;;;2.10;1.20;;;27.00;40.80;;;;;;6126965;29;20047;-80
2023/07/21 23:21:44;;;;;;;1.92;1.13;;;27.00;40.80;;;;;;6129197;29;20032;-78
2023/07/21 23:24:46;;;;;;;1.75;1.30;;;27.00;40.70;;;;;;6141709;29;20042;-79
2023/07/21 23:27:47;;;;;;;2.55;1.40;;;27.00;40.90;;;;;;6125610;29;20027;-80
2023/07/21 23:30:56;;;;;;;5.63;1.45;;;27.00;40.90;;;;;;6123926;29;20043;-79
2023/07/21 23:33:58;;;;;;;2.63;1.00;;;26.90;40.90;;;;;;6121108;28;20070;-80
2023/07/21 23:37:01;;;;;;;3.83;1.27;;;26.90;40.80;;;;;;6123085;29;20473;-79
2023/07/21 23:40:09;;;;;;;4.35;1.38;;;26.90;40.90;;;;;;6137522;29;20058;-79
2023/07/21 23:43:12;;;;;;;6.93;1.58;;;27.00;40.90;;;;;;6123742;29;20090;-78
2023/07/21 23:46:16;;;;;;;2.85;1.63;;;26.90;41.10;;;;;;6123726;29;20507;-80
2023/07/21 23:49:18;;;;;;;2.58;1.25;;;27.00;41.20;;;;;;6137248;29;20035;-80
2023/07/21 23:52:18;;;;;;;1.58;1.20;;;26.80;41.10;;;;;;6134828;29;20621;-79
2023/07/21 23:55:19;;;;;;;2.53;1.38;;;26.80;41.10;;;;;;6138077;28;20050;-79
2023/07/21 23:58:20;;;;;;;2.55;1.73;;;26.70;41.10;;;;;;6139516;29;20099;-78
